sensor_id;sensor_type;location;lat;lon;timestamp;P1;durP1;ratioP1;P2;durP2;ratioP2
35777;SDS011;21899;42.662;23.316;2023-07-31T00:01:51;4.70;;;2.80;;
35777;SDS011;21899;42.662;23.316;2023-07-31T00:04:17;3.85;;;2.45;;
35777;SDS011;21899;42.662;23.316;2023-07-31T00:06:42;4.45;;;2.78;;
35777;SDS011;21899;42.662;23.316;2023-07-31T00:09:08;5.28;;;2.88;;
35777;SDS011;21899;42.662;23.316;2023-07-31T00:11:33;4.20;;;3.00;;
35777;SDS011;21899;42.662;23.316;2023-07-31T00:13:58;4.90;;;3.13;;
35777;SDS011;21899;42.662;23.316;2023-07-31T00:16:24;4.30;;;2.85;;
35777;SDS011;21899;42.662;23.316;2023-07-31T00:18:49;4.18;;;2.83;;
35777;SDS011;21899;42.662;23.316;2023-07-31T00:21:15;5.22;;;3.28;;
35777;SDS011;21899;42.662;23.316;2023-07-31T00:23:40;4.93;;;3.05;;
35777;SDS011;21899;42.662;23.316;2023-07-31T00:26:05;4.63;;;2.95;;
35777;SDS011;21899;42.662;23.316;2023-07-31T00:28:31;4.57;;;3.35;;
35777;SDS011;21899;42.662;23.316;2023-07-31T00:30:56;4.40;;;3.50;;
35777;SDS011;21899;42.662;23.316;2023-07-31T00:33:22;7.05;;;3.80;;
35777;SDS011;21899;42.662;23.316;2023-07-31T00:35:48;7.30;;;3.67;;
35777;SDS011;21899;42.662;23.316;2023-07-31T00:38:13;7.97;;;3.88;;
35777;SDS011;21899;42.662;23.316;2023-07-31T00:40:39;5.25;;;3.95;;
35777;SDS011;21899;42.662;23.316;2023-07-31T00:43:04;6.43;;;4.22;;
35777;SDS011;21899;42.662;23.316;2023-07-31T00:45:30;6.90;;;4.18;;
35777;SDS011;21899;42.662;23.316;2023-07-31T00:47:56;6.80;;;4.45;;
35777;SDS011;21899;42.662;23.316;2023-07-31T00:50:22;6.82;;;4.60;;
35777;SDS011;21899;42.662;23.316;2023-07-31T00:52:49;7.03;;;4.65;;
35777;SDS011;21899;42.662;23.316;2023-07-31T00:55:15;6.55;;;4.53;;
35777;SDS011;21899;42.662;23.316;2023-07-31T00:57:41;7.68;;;5.22;;
35777;SDS011;21899;42.662;23.316;2023-07-31T01:00:07;7.07;;;5.00;;
35777;SDS011;21899;42.662;23.316;2023-07-31T01:02:33;8.63;;;5.20;;
35777;SDS011;21899;42.662;23.316;2023-07-31T01:04:59;7.28;;;5.25;;
35777;SDS011;21899;42.662;23.316;2023-07-31T01:08:12;8.02;;;6.00;;
35777;SDS011;21899;42.662;23.316;2023-07-31T01:10:15;8.88;;;6.28;;
35777;SDS011;21899;42.662;23.316;2023-07-31T01:12:44;8.77;;;6.18;;
35777;SDS011;21899;42.662;23.316;2023-07-31T01:15:11;9.00;;;6.40;;
35777;SDS011;21899;42.662;23.316;2023-07-31T01:17:37;12.93;;;7.15;;
35777;SDS011;21899;42.662;23.316;2023-07-31T01:20:05;11.85;;;7.45;;
35777;SDS011;21899;42.662;23.316;2023-07-31T01:22:46;10.02;;;7.60;;
35777;SDS011;21899;42.662;23.316;2023-07-31T01:28:04;13.30;;;9.20;;
35777;SDS011;21899;42.662;23.316;2023-07-31T01:30:33;14.38;;;9.75;;
35777;SDS011;21899;42.662;23.316;2023-07-31T01:33:02;18.40;;;10.88;;
35777;SDS011;21899;42.662;23.316;2023-07-31T01:35:35;17.02;;;10.07;;
35777;SDS011;21899;42.662;23.316;2023-07-31T01:38:02;17.10;;;11.80;;
35777;SDS011;21899;42.662;23.316;2023-07-31T01:40:28;18.00;;;12.63;;
35777;SDS011;21899;42.662;23.316;2023-07-31T01:42:53;18.67;;;11.82;;
35777;SDS011;21899;42.662;23.316;2023-07-31T01:45:19;21.98;;;13.75;;
35777;SDS011;21899;42.662;23.316;2023-07-31T01:47:44;20.50;;;13.00;;
35777;SDS011;21899;42.662;23.316;2023-07-31T01:50:10;22.10;;;13.15;;
35777;SDS011;21899;42.662;23.316;2023-07-31T01:52:35;21.98;;;14.20;;
35777;SDS011;21899;42.662;23.316;2023-07-31T01:55:01;23.70;;;14.30;;
35777;SDS011;21899;42.662;23.316;2023-07-31T01:57:26;23.60;;;15.27;;
35777;SDS011;21899;42.662;23.316;2023-07-31T01:59:52;22.15;;;14.68;;
35777;SDS011;21899;42.662;23.316;2023-07-31T02:02:18;26.00;;;15.68;;
35777;SDS011;21899;42.662;23.316;2023-07-31T02:04:44;24.05;;;15.40;;
35777;SDS011;21899;42.662;23.316;2023-07-31T02:07:10;20.40;;;15.05;;
35777;SDS011;21899;42.662;23.316;2023-07-31T02:09:35;23.48;;;15.38;;
35777;SDS011;21899;42.662;23.316;2023-07-31T02:12:01;24.35;;;15.30;;
35777;SDS011;21899;42.662;23.316;2023-07-31T02:14:26;23.13;;;15.45;;
35777;SDS011;21899;42.662;23.316;2023-07-31T02:16:52;27.92;;;16.60;;
35777;SDS011;21899;42.662;23.316;2023-07-31T02:19:17;24.98;;;16.23;;
35777;SDS011;21899;42.662;23.316;2023-07-31T02:21:42;21.13;;;15.13;;
35777;SDS011;21899;42.662;23.316;2023-07-31T02:24:08;23.10;;;15.50;;
35777;SDS011;21899;42.662;23.316;2023-07-31T02:26:33;24.90;;;16.13;;
35777;SDS011;21899;42.662;23.316;2023-07-31T02:28:59;23.60;;;15.30;;
35777;SDS011;21899;42.662;23.316;2023-07-31T02:31:24;23.70;;;15.65;;
35777;SDS011;21899;42.662;23.316;2023-07-31T02:33:49;24.65;;;15.50;;
35777;SDS011;21899;42.662;23.316;2023-07-31T02:36:15;21.45;;;14.07;;
35777;SDS011;21899;42.662;23.316;2023-07-31T02:38:40;24.70;;;15.40;;
35777;SDS011;21899;42.662;23.316;2023-07-31T02:41:06;20.85;;;15.02;;
35777;SDS011;21899;42.662;23.316;2023-07-31T02:43:31;23.58;;;16.10;;
35777;SDS011;21899;42.662;23.316;2023-07-31T02:45:56;21.20;;;14.80;;
35777;SDS011;21899;42.662;23.316;2023-07-31T02:48:22;22.55;;;15.38;;
35777;SDS011;21899;42.662;23.316;2023-07-31T02:50:47;21.23;;;14.40;;
35777;SDS011;21899;42.662;23.316;2023-07-31T02:53:13;23.25;;;15.27;;
35777;SDS011;21899;42.662;23.316;2023-07-31T02:55:39;25.45;;;14.38;;
35777;SDS011;21899;42.662;23.316;2023-07-31T02:58:04;21.42;;;15.00;;
35777;SDS011;21899;42.662;23.316;2023-07-31T03:00:30;22.25;;;15.40;;
35777;SDS011;21899;42.662;23.316;2023-07-31T03:02:55;25.10;;;15.65;;
35777;SDS011;21899;42.662;23.316;2023-07-31T03:05:20;21.90;;;14.43;;
35777;SDS011;21899;42.662;23.316;2023-07-31T03:07:46;20.75;;;14.05;;
35777;SDS011;21899;42.662;23.316;2023-07-31T03:10:11;21.85;;;15.45;;
35777;SDS011;21899;42.662;23.316;2023-07-31T03:12:37;23.33;;;15.90;;
35777;SDS011;21899;42.662;23.316;2023-07-31T03:15:03;21.70;;;15.32;;
35777;SDS011;21899;42.662;23.316;2023-07-31T03:17:28;22.38;;;14.63;;
35777;SDS011;21899;42.662;23.316;2023-07-31T03:19:54;23.30;;;15.25;;
35777;SDS011;21899;42.662;23.316;2023-07-31T03:22:19;19.90;;;13.50;;
35777;SDS011;21899;42.662;23.316;2023-07-31T03:24:44;22.15;;;14.98;;
35777;SDS011;21899;42.662;23.316;2023-07-31T03:27:10;20.23;;;14.38;;
35777;SDS011;21899;42.662;23.316;2023-07-31T03:29:35;23.25;;;15.20;;
35777;SDS011;21899;42.662;23.316;2023-07-31T03:32:00;23.80;;;15.45;;
35777;SDS011;21899;42.662;23.316;2023-07-31T03:34:26;23.45;;;15.32;;
35777;SDS011;21899;42.662;23.316;2023-07-31T03:36:51;21.40;;;14.30;;
35777;SDS011;21899;42.662;23.316;2023-07-31T03:39:17;23.25;;;15.65;;
35777;SDS011;21899;42.662;23.316;2023-07-31T03:41:43;22.83;;;15.15;;
35777;SDS011;21899;42.662;23.316;2023-07-31T03:44:08;21.75;;;14.45;;
35777;SDS011;21899;42.662;23.316;2023-07-31T03:46:34;24.73;;;15.80;;
35777;SDS011;21899;42.662;23.316;2023-07-31T03:49:01;24.00;;;15.23;;
35777;SDS011;21899;42.662;23.316;2023-07-31T03:51:26;22.70;;;13.93;;
35777;SDS011;21899;42.662;23.316;2023-07-31T03:53:51;27.70;;;16.25;;
35777;SDS011;21899;42.662;23.316;2023-07-31T03:56:17;21.15;;;14.77;;
35777;SDS011;21899;42.662;23.316;2023-07-31T03:58:42;24.33;;;15.13;;
35777;SDS011;21899;42.662;23.316;2023-07-31T04:01:07;23.58;;;14.90;;
35777;SDS011;21899;42.662;23.316;2023-07-31T04:03:33;21.98;;;14.77;;
35777;SDS011;21899;42.662;23.316;2023-07-31T04:05:58;28.77;;;14.60;;
35777;SDS011;21899;42.662;23.316;2023-07-31T04:08:24;23.70;;;15.20;;
35777;SDS011;21899;42.662;23.316;2023-07-31T04:10:49;27.52;;;15.85;;
35777;SDS011;21899;42.662;23.316;2023-07-31T04:13:15;21.25;;;14.05;;
35777;SDS011;21899;42.662;23.316;2023-07-31T04:15:41;22.52;;;15.20;;
35777;SDS011;21899;42.662;23.316;2023-07-31T04:18:06;24.85;;;15.38;;
35777;SDS011;21899;42.662;23.316;2023-07-31T04:20:32;25.50;;;16.33;;
35777;SDS011;21899;42.662;23.316;2023-07-31T04:22:57;22.48;;;13.98;;
35777;SDS011;21899;42.662;23.316;2023-07-31T04:25:23;26.05;;;16.05;;
35777;SDS011;21899;42.662;23.316;2023-07-31T04:27:48;22.38;;;13.43;;
35777;SDS011;21899;42.662;23.316;2023-07-31T04:30:13;22.35;;;15.02;;
35777;SDS011;21899;42.662;23.316;2023-07-31T04:32:39;23.83;;;13.57;;
35777;SDS011;21899;42.662;23.316;2023-07-31T04:35:04;22.40;;;13.70;;
35777;SDS011;21899;42.662;23.316;2023-07-31T04:37:30;25.38;;;16.00;;
35777;SDS011;21899;42.662;23.316;2023-07-31T04:39:55;20.92;;;13.55;;
35777;SDS011;21899;42.662;23.316;2023-07-31T04:42:21;22.13;;;13.50;;
35777;SDS011;21899;42.662;23.316;2023-07-31T04:44:46;22.80;;;13.95;;
35777;SDS011;21899;42.662;23.316;2023-07-31T04:47:12;24.20;;;13.32;;
35777;SDS011;21899;42.662;23.316;2023-07-31T04:49:37;25.00;;;13.20;;
35777;SDS011;21899;42.662;23.316;2023-07-31T04:52:03;23.88;;;13.57;;
35777;SDS011;21899;42.662;23.316;2023-07-31T04:54:29;25.42;;;14.73;;
35777;SDS011;21899;42.662;23.316;2023-07-31T04:56:54;21.17;;;14.10;;
35777;SDS011;21899;42.662;23.316;2023-07-31T04:59:19;21.83;;;13.23;;
35777;SDS011;21899;42.662;23.316;2023-07-31T05:01:45;18.77;;;12.98;;
35777;SDS011;21899;42.662;23.316;2023-07-31T05:04:12;22.63;;;14.27;;
35777;SDS011;21899;42.662;23.316;2023-07-31T05:06:39;19.70;;;13.52;;
35777;SDS011;21899;42.662;23.316;2023-07-31T05:09:04;20.67;;;12.93;;
35777;SDS011;21899;42.662;23.316;2023-07-31T05:11:29;19.13;;;13.73;;
35777;SDS011;21899;42.662;23.316;2023-07-31T05:13:55;17.73;;;12.18;;
35777;SDS011;21899;42.662;23.316;2023-07-31T05:16:20;15.15;;;10.32;;
35777;SDS011;21899;42.662;23.316;2023-07-31T05:18:46;16.60;;;11.65;;
35777;SDS011;21899;42.662;23.316;2023-07-31T05:21:11;13.63;;;10.88;;
35777;SDS011;21899;42.662;23.316;2023-07-31T05:23:36;14.57;;;10.88;;
35777;SDS011;21899;42.662;23.316;2023-07-31T05:26:03;16.15;;;11.05;;
35777;SDS011;21899;42.662;23.316;2023-07-31T05:28:29;13.02;;;9.73;;
35777;SDS011;21899;42.662;23.316;2023-07-31T05:30:58;15.13;;;10.38;;
35777;SDS011;21899;42.662;23.316;2023-07-31T05:33:33;13.25;;;9.65;;
35777;SDS011;21899;42.662;23.316;2023-07-31T05:35:59;12.00;;;8.82;;
35777;SDS011;21899;42.662;23.316;2023-07-31T05:38:24;10.80;;;8.68;;
35777;SDS011;21899;42.662;23.316;2023-07-31T05:40:50;13.25;;;8.98;;
35777;SDS011;21899;42.662;23.316;2023-07-31T05:43:15;12.45;;;8.52;;
35777;SDS011;21899;42.662;23.316;2023-07-31T05:45:42;11.23;;;6.88;;
35777;SDS011;21899;42.662;23.316;2023-07-31T05:48:07;8.57;;;6.75;;
35777;SDS011;21899;42.662;23.316;2023-07-31T05:50:33;10.15;;;7.30;;
35777;SDS011;21899;42.662;23.316;2023-07-31T05:52:58;9.23;;;6.63;;
35777;SDS011;21899;42.662;23.316;2023-07-31T05:55:24;10.60;;;5.88;;
35777;SDS011;21899;42.662;23.316;2023-07-31T05:57:52;7.30;;;5.25;;
35777;SDS011;21899;42.662;23.316;2023-07-31T06:00:18;9.38;;;5.55;;
35777;SDS011;21899;42.662;23.316;2023-07-31T06:02:43;7.57;;;5.28;;
35777;SDS011;21899;42.662;23.316;2023-07-31T06:05:08;7.43;;;5.38;;
35777;SDS011;21899;42.662;23.316;2023-07-31T06:07:34;9.30;;;5.38;;
35777;SDS011;21899;42.662;23.316;2023-07-31T06:09:59;7.25;;;4.90;;
35777;SDS011;21899;42.662;23.316;2023-07-31T06:12:31;6.28;;;4.88;;
35777;SDS011;21899;42.662;23.316;2023-07-31T06:14:57;7.90;;;5.18;;
35777;SDS011;21899;42.662;23.316;2023-07-31T06:17:22;5.85;;;4.05;;
35777;SDS011;21899;42.662;23.316;2023-07-31T06:19:49;6.28;;;4.00;;
35777;SDS011;21899;42.662;23.316;2023-07-31T06:22:33;5.25;;;4.00;;
35777;SDS011;21899;42.662;23.316;2023-07-31T06:24:59;4.93;;;3.65;;
35777;SDS011;21899;42.662;23.316;2023-07-31T06:27:24;5.25;;;3.60;;
35777;SDS011;21899;42.662;23.316;2023-07-31T06:29:50;5.22;;;3.58;;
35777;SDS011;21899;42.662;23.316;2023-07-31T06:32:15;4.63;;;3.45;;
35777;SDS011;21899;42.662;23.316;2023-07-31T06:34:41;4.47;;;3.08;;
35777;SDS011;21899;42.662;23.316;2023-07-31T06:37:06;5.15;;;3.72;;
35777;SDS011;21899;42.662;23.316;2023-07-31T06:39:31;6.50;;;3.88;;
35777;SDS011;21899;42.662;23.316;2023-07-31T06:41:57;5.80;;;3.55;;
35777;SDS011;21899;42.662;23.316;2023-07-31T06:44:22;7.82;;;3.97;;
35777;SDS011;21899;42.662;23.316;2023-07-31T06:46:48;4.65;;;3.22;;
35777;SDS011;21899;42.662;23.316;2023-07-31T06:49:13;5.38;;;3.60;;
35777;SDS011;21899;42.662;23.316;2023-07-31T06:51:40;6.90;;;4.13;;
35777;SDS011;21899;42.662;23.316;2023-07-31T06:54:06;5.60;;;3.42;;
35777;SDS011;21899;42.662;23.316;2023-07-31T06:56:31;5.35;;;3.45;;
35777;SDS011;21899;42.662;23.316;2023-07-31T06:58:57;4.38;;;3.00;;
35777;SDS011;21899;42.662;23.316;2023-07-31T07:01:22;8.02;;;3.60;;
35777;SDS011;21899;42.662;23.316;2023-07-31T07:03:48;4.55;;;2.92;;
35777;SDS011;21899;42.662;23.316;2023-07-31T07:06:15;5.10;;;2.95;;
35777;SDS011;21899;42.662;23.316;2023-07-31T07:08:41;4.60;;;3.00;;
35777;SDS011;21899;42.662;23.316;2023-07-31T07:11:07;8.07;;;3.35;;
35777;SDS011;21899;42.662;23.316;2023-07-31T07:13:32;5.10;;;3.10;;
35777;SDS011;21899;42.662;23.316;2023-07-31T07:15:57;5.40;;;3.30;;
35777;SDS011;21899;42.662;23.316;2023-07-31T07:18:23;3.60;;;2.78;;
35777;SDS011;21899;42.662;23.316;2023-07-31T07:20:50;3.75;;;2.58;;
35777;SDS011;21899;42.662;23.316;2023-07-31T07:23:16;3.90;;;2.60;;
35777;SDS011;21899;42.662;23.316;2023-07-31T07:25:42;4.10;;;2.90;;
35777;SDS011;21899;42.662;23.316;2023-07-31T07:28:08;3.67;;;2.65;;
35777;SDS011;21899;42.662;23.316;2023-07-31T07:30:34;5.95;;;2.70;;
35777;SDS011;21899;42.662;23.316;2023-07-31T07:32:59;5.55;;;2.38;;
35777;SDS011;21899;42.662;23.316;2023-07-31T07:35:25;4.50;;;2.70;;
35777;SDS011;21899;42.662;23.316;2023-07-31T07:37:50;4.35;;;2.97;;
35777;SDS011;21899;42.662;23.316;2023-07-31T07:40:16;4.40;;;2.80;;
35777;SDS011;21899;42.662;23.316;2023-07-31T07:42:41;4.03;;;2.50;;
35777;SDS011;21899;42.662;23.316;2023-07-31T07:45:07;5.40;;;2.92;;
35777;SDS011;21899;42.662;23.316;2023-07-31T07:47:34;8.30;;;2.65;;
35777;SDS011;21899;42.662;23.316;2023-07-31T07:50:00;3.95;;;2.47;;
35777;SDS011;21899;42.662;23.316;2023-07-31T07:52:25;5.63;;;3.13;;
35777;SDS011;21899;42.662;23.316;2023-07-31T07:54:51;11.43;;;4.13;;
35777;SDS011;21899;42.662;23.316;2023-07-31T07:57:16;4.82;;;2.45;;
35777;SDS011;21899;42.662;23.316;2023-07-31T07:59:42;5.75;;;2.42;;
35777;SDS011;21899;42.662;23.316;2023-07-31T08:02:07;3.58;;;2.15;;
35777;SDS011;21899;42.662;23.316;2023-07-31T08:04:32;3.80;;;2.28;;
35777;SDS011;21899;42.662;23.316;2023-07-31T08:06:58;3.90;;;2.42;;
35777;SDS011;21899;42.662;23.316;2023-07-31T08:09:23;5.10;;;3.45;;
35777;SDS011;21899;42.662;23.316;2023-07-31T08:11:49;3.22;;;2.25;;
35777;SDS011;21899;42.662;23.316;2023-07-31T08:14:14;3.90;;;2.40;;
35777;SDS011;21899;42.662;23.316;2023-07-31T08:16:39;3.58;;;2.50;;
35777;SDS011;21899;42.662;23.316;2023-07-31T08:19:05;3.10;;;2.17;;
35777;SDS011;21899;42.662;23.316;2023-07-31T08:21:31;3.42;;;2.35;;
35777;SDS011;21899;42.662;23.316;2023-07-31T08:23:57;4.28;;;2.78;;
35777;SDS011;21899;42.662;23.316;2023-07-31T08:26:22;4.03;;;2.65;;
35777;SDS011;21899;42.662;23.316;2023-07-31T08:28:48;4.53;;;2.47;;
35777;SDS011;21899;42.662;23.316;2023-07-31T08:31:13;3.92;;;2.35;;
35777;SDS011;21899;42.662;23.316;2023-07-31T08:33:39;2.88;;;2.10;;
35777;SDS011;21899;42.662;23.316;2023-07-31T08:36:05;3.85;;;2.67;;
35777;SDS011;21899;42.662;23.316;2023-07-31T08:38:32;3.95;;;2.60;;
35777;SDS011;21899;42.662;23.316;2023-07-31T08:40:57;3.90;;;2.58;;
35777;SDS011;21899;42.662;23.316;2023-07-31T08:43:26;3.95;;;2.38;;
35777;SDS011;21899;42.662;23.316;2023-07-31T08:45:52;6.32;;;2.63;;
35777;SDS011;21899;42.662;23.316;2023-07-31T08:48:18;4.82;;;2.55;;
35777;SDS011;21899;42.662;23.316;2023-07-31T08:50:46;5.15;;;2.67;;
35777;SDS011;21899;42.662;23.316;2023-07-31T08:53:11;3.90;;;2.30;;
35777;SDS011;21899;42.662;23.316;2023-07-31T08:55:37;5.53;;;2.30;;
35777;SDS011;21899;42.662;23.316;2023-07-31T08:58:03;3.40;;;2.17;;
35777;SDS011;21899;42.662;23.316;2023-07-31T09:00:30;5.72;;;2.38;;
35777;SDS011;21899;42.662;23.316;2023-07-31T09:03:03;3.97;;;2.38;;
35777;SDS011;21899;42.662;23.316;2023-07-31T09:05:33;3.28;;;1.92;;
35777;SDS011;21899;42.662;23.316;2023-07-31T09:08:01;3.58;;;2.40;;
35777;SDS011;21899;42.662;23.316;2023-07-31T09:10:29;3.17;;;2.00;;
35777;SDS011;21899;42.662;23.316;2023-07-31T09:12:55;3.45;;;2.25;;
35777;SDS011;21899;42.662;23.316;2023-07-31T09:15:21;4.97;;;2.50;;
35777;SDS011;21899;42.662;23.316;2023-07-31T09:17:48;3.97;;;2.50;;
35777;SDS011;21899;42.662;23.316;2023-07-31T09:20:24;6.18;;;2.10;;
35777;SDS011;21899;42.662;23.316;2023-07-31T09:22:49;3.92;;;2.47;;
35777;SDS011;21899;42.662;23.316;2023-07-31T09:25:22;3.90;;;2.58;;
35777;SDS011;21899;42.662;23.316;2023-07-31T09:28:10;3.35;;;2.33;;
35777;SDS011;21899;42.662;23.316;2023-07-31T09:30:51;4.80;;;2.30;;
35777;SDS011;21899;42.662;23.316;2023-07-31T09:33:20;3.63;;;2.28;;
35777;SDS011;21899;42.662;23.316;2023-07-31T09:35:46;4.10;;;2.33;;
35777;SDS011;21899;42.662;23.316;2023-07-31T09:38:13;3.42;;;2.13;;
35777;SDS011;21899;42.662;23.316;2023-07-31T09:43:07;4.85;;;2.25;;
35777;SDS011;21899;42.662;23.316;2023-07-31T09:45:36;4.22;;;2.55;;
35777;SDS011;21899;42.662;23.316;2023-07-31T09:48:02;3.67;;;2.65;;
35777;SDS011;21899;42.662;23.316;2023-07-31T09:50:28;5.05;;;2.25;;
35777;SDS011;21899;42.662;23.316;2023-07-31T09:52:54;4.75;;;2.33;;
35777;SDS011;21899;42.662;23.316;2023-07-31T09:55:20;3.88;;;2.45;;
35777;SDS011;21899;42.662;23.316;2023-07-31T09:57:46;8.43;;;2.40;;
35777;SDS011;21899;42.662;23.316;2023-07-31T10:00:13;3.28;;;2.10;;
35777;SDS011;21899;42.662;23.316;2023-07-31T10:02:40;3.55;;;2.55;;
35777;SDS011;21899;42.662;23.316;2023-07-31T10:05:06;2.72;;;2.00;;
35777;SDS011;21899;42.662;23.316;2023-07-31T10:07:38;3.72;;;2.40;;
35777;SDS011;21899;42.662;23.316;2023-07-31T10:10:07;3.53;;;1.90;;
35777;SDS011;21899;42.662;23.316;2023-07-31T10:12:34;3.25;;;2.00;;
35777;SDS011;21899;42.662;23.316;2023-07-31T10:15:00;2.90;;;2.17;;
35777;SDS011;21899;42.662;23.316;2023-07-31T10:17:26;4.45;;;2.17;;
35777;SDS011;21899;42.662;23.316;2023-07-31T10:19:52;3.35;;;1.90;;
35777;SDS011;21899;42.662;23.316;2023-07-31T10:22:21;3.20;;;1.88;;
35777;SDS011;21899;42.662;23.316;2023-07-31T10:24:47;3.53;;;2.10;;
35777;SDS011;21899;42.662;23.316;2023-07-31T10:27:15;3.47;;;2.00;;
35777;SDS011;21899;42.662;23.316;2023-07-31T10:29:41;3.33;;;2.10;;
35777;SDS011;21899;42.662;23.316;2023-07-31T10:32:09;3.33;;;2.13;;
35777;SDS011;21899;42.662;23.316;2023-07-31T10:34:36;3.20;;;2.20;;
35777;SDS011;21899;42.662;23.316;2023-07-31T10:37:23;2.60;;;1.88;;
35777;SDS011;21899;42.662;23.316;2023-07-31T10:40:01;2.88;;;1.98;;
35777;SDS011;21899;42.662;23.316;2023-07-31T10:44:59;3.50;;;2.20;;
35777;SDS011;21899;42.662;23.316;2023-07-31T10:47:27;3.67;;;1.98;;
35777;SDS011;21899;42.662;23.316;2023-07-31T10:49:52;2.53;;;1.63;;
35777;SDS011;21899;42.662;23.316;2023-07-31T10:52:21;2.45;;;1.73;;
35777;SDS011;21899;42.662;23.316;2023-07-31T10:54:48;5.03;;;2.20;;
35777;SDS011;21899;42.662;23.316;2023-07-31T10:57:23;3.80;;;2.08;;
35777;SDS011;21899;42.662;23.316;2023-07-31T10:59:50;3.30;;;1.77;;
35777;SDS011;21899;42.662;23.316;2023-07-31T11:02:28;4.05;;;1.52;;
35777;SDS011;21899;42.662;23.316;2023-07-31T11:05:05;3.60;;;2.08;;
35777;SDS011;21899;42.662;23.316;2023-07-31T11:07:46;3.25;;;1.90;;
35777;SDS011;21899;42.662;23.316;2023-07-31T11:10:18;3.40;;;1.63;;
35777;SDS011;21899;42.662;23.316;2023-07-31T11:12:47;2.58;;;1.52;;
35777;SDS011;21899;42.662;23.316;2023-07-31T11:15:12;3.10;;;1.85;;
35777;SDS011;21899;42.662;23.316;2023-07-31T11:17:38;2.22;;;1.50;;
35777;SDS011;21899;42.662;23.316;2023-07-31T11:20:05;2.90;;;1.42;;
35777;SDS011;21899;42.662;23.316;2023-07-31T11:22:32;2.50;;;1.60;;
35777;SDS011;21899;42.662;23.316;2023-07-31T11:24:59;2.95;;;1.73;;
35777;SDS011;21899;42.662;23.316;2023-07-31T11:27:27;3.92;;;2.20;;
35777;SDS011;21899;42.662;23.316;2023-07-31T11:29:59;2.83;;;1.50;;
35777;SDS011;21899;42.662;23.316;2023-07-31T11:32:25;6.80;;;1.92;;
35777;SDS011;21899;42.662;23.316;2023-07-31T11:34:54;2.38;;;1.40;;
35777;SDS011;21899;42.662;23.316;2023-07-31T11:37:20;2.58;;;1.80;;
35777;SDS011;21899;42.662;23.316;2023-07-31T11:40:01;3.20;;;1.88;;
35777;SDS011;21899;42.662;23.316;2023-07-31T11:42:27;4.90;;;2.05;;
35777;SDS011;21899;42.662;23.316;2023-07-31T11:44:52;3.38;;;2.30;;
35777;SDS011;21899;42.662;23.316;2023-07-31T11:47:18;3.75;;;2.05;;
35777;SDS011;21899;42.662;23.316;2023-07-31T11:49:43;2.95;;;1.95;;
35777;SDS011;21899;42.662;23.316;2023-07-31T11:52:09;6.35;;;2.20;;
35777;SDS011;21899;42.662;23.316;2023-07-31T11:54:36;4.30;;;2.20;;
35777;SDS011;21899;42.662;23.316;2023-07-31T11:57:01;3.63;;;2.17;;
35777;SDS011;21899;42.662;23.316;2023-07-31T11:59:28;3.78;;;2.28;;
35777;SDS011;21899;42.662;23.316;2023-07-31T12:01:53;5.22;;;2.17;;
35777;SDS011;21899;42.662;23.316;2023-07-31T12:04:19;2.97;;;2.17;;
35777;SDS011;21899;42.662;23.316;2023-07-31T12:06:46;3.53;;;2.30;;
35777;SDS011;21899;42.662;23.316;2023-07-31T12:09:13;3.33;;;2.35;;
35777;SDS011;21899;42.662;23.316;2023-07-31T12:11:45;4.15;;;2.33;;
35777;SDS011;21899;42.662;23.316;2023-07-31T12:14:21;4.30;;;3.45;;
35777;SDS011;21899;42.662;23.316;2023-07-31T12:16:52;3.90;;;2.67;;
35777;SDS011;21899;42.662;23.316;2023-07-31T12:19:29;3.72;;;2.72;;
35777;SDS011;21899;42.662;23.316;2023-07-31T12:21:56;5.18;;;3.33;;
35777;SDS011;21899;42.662;23.316;2023-07-31T12:24:21;5.47;;;4.10;;
35777;SDS011;21899;42.662;23.316;2023-07-31T12:26:47;5.70;;;4.10;;
35777;SDS011;21899;42.662;23.316;2023-07-31T12:29:13;6.32;;;4.53;;
35777;SDS011;21899;42.662;23.316;2023-07-31T12:31:40;5.70;;;4.00;;
35777;SDS011;21899;42.662;23.316;2023-07-31T12:34:16;5.40;;;3.65;;
35777;SDS011;21899;42.662;23.316;2023-07-31T12:36:43;5.13;;;3.85;;
35777;SDS011;21899;42.662;23.316;2023-07-31T12:39:08;5.18;;;3.55;;
35777;SDS011;21899;42.662;23.316;2023-07-31T12:41:34;6.47;;;3.45;;
35777;SDS011;21899;42.662;23.316;2023-07-31T12:43:59;6.03;;;3.35;;
35777;SDS011;21899;42.662;23.316;2023-07-31T12:46:25;5.28;;;3.38;;
35777;SDS011;21899;42.662;23.316;2023-07-31T12:48:50;6.05;;;3.88;;
35777;SDS011;21899;42.662;23.316;2023-07-31T12:51:15;4.60;;;3.65;;
35777;SDS011;21899;42.662;23.316;2023-07-31T12:53:41;6.25;;;3.33;;
35777;SDS011;21899;42.662;23.316;2023-07-31T12:56:25;4.78;;;3.35;;
35777;SDS011;21899;42.662;23.316;2023-07-31T12:58:50;5.95;;;4.00;;
35777;SDS011;21899;42.662;23.316;2023-07-31T13:01:15;5.97;;;3.55;;
35777;SDS011;21899;42.662;23.316;2023-07-31T13:03:41;6.07;;;4.00;;
35777;SDS011;21899;42.662;23.316;2023-07-31T13:06:06;6.53;;;4.15;;
35777;SDS011;21899;42.662;23.316;2023-07-31T13:08:32;7.20;;;4.22;;
35777;SDS011;21899;42.662;23.316;2023-07-31T13:10:57;5.93;;;4.38;;
35777;SDS011;21899;42.662;23.316;2023-07-31T13:13:22;8.90;;;4.35;;
35777;SDS011;21899;42.662;23.316;2023-07-31T13:15:48;8.55;;;4.18;;
35777;SDS011;21899;42.662;23.316;2023-07-31T13:18:13;6.85;;;4.38;;
35777;SDS011;21899;42.662;23.316;2023-07-31T13:20:38;5.63;;;4.30;;
35777;SDS011;21899;42.662;23.316;2023-07-31T13:23:04;5.97;;;4.55;;
35777;SDS011;21899;42.662;23.316;2023-07-31T13:25:29;6.38;;;4.18;;
35777;SDS011;21899;42.662;23.316;2023-07-31T13:27:55;6.40;;;3.63;;
35777;SDS011;21899;42.662;23.316;2023-07-31T13:30:20;4.68;;;3.58;;
35777;SDS011;21899;42.662;23.316;2023-07-31T13:32:45;5.28;;;3.97;;
35777;SDS011;21899;42.662;23.316;2023-07-31T13:35:11;4.93;;;3.50;;
35777;SDS011;21899;42.662;23.316;2023-07-31T13:37:37;4.35;;;2.70;;
35777;SDS011;21899;42.662;23.316;2023-07-31T13:40:02;5.53;;;3.42;;
35777;SDS011;21899;42.662;23.316;2023-07-31T13:42:30;5.93;;;2.90;;
35777;SDS011;21899;42.662;23.316;2023-07-31T13:44:56;6.78;;;3.72;;
35777;SDS011;21899;42.662;23.316;2023-07-31T13:47:21;4.93;;;3.92;;
35777;SDS011;21899;42.662;23.316;2023-07-31T13:49:46;4.75;;;3.35;;
35777;SDS011;21899;42.662;23.316;2023-07-31T13:52:12;6.05;;;3.20;;
35777;SDS011;21899;42.662;23.316;2023-07-31T13:54:37;4.88;;;3.17;;
35777;SDS011;21899;42.662;23.316;2023-07-31T13:57:03;4.18;;;3.00;;
35777;SDS011;21899;42.662;23.316;2023-07-31T13:59:28;5.60;;;3.20;;
35777;SDS011;21899;42.662;23.316;2023-07-31T14:01:54;8.40;;;3.25;;
35777;SDS011;21899;42.662;23.316;2023-07-31T14:04:19;5.10;;;3.63;;
35777;SDS011;21899;42.662;23.316;2023-07-31T14:06:45;3.92;;;2.95;;
35777;SDS011;21899;42.662;23.316;2023-07-31T14:09:10;6.25;;;3.40;;
35777;SDS011;21899;42.662;23.316;2023-07-31T14:11:36;4.90;;;3.10;;
35777;SDS011;21899;42.662;23.316;2023-07-31T14:14:01;3.90;;;2.90;;
35777;SDS011;21899;42.662;23.316;2023-07-31T14:16:27;5.55;;;3.42;;
35777;SDS011;21899;42.662;23.316;2023-07-31T14:18:53;4.15;;;3.05;;
35777;SDS011;21899;42.662;23.316;2023-07-31T14:21:18;4.78;;;3.10;;
35777;SDS011;21899;42.662;23.316;2023-07-31T14:23:44;4.90;;;3.78;;
35777;SDS011;21899;42.662;23.316;2023-07-31T14:26:10;4.70;;;3.33;;
35777;SDS011;21899;42.662;23.316;2023-07-31T14:28:36;4.72;;;2.90;;
35777;SDS011;21899;42.662;23.316;2023-07-31T14:31:01;5.15;;;3.45;;